CheckWX is a tool to help pilots better visualize weather data.  It is not intended as a substitute for an official pre-flight weather briefing.

04:20:48 UTC

KDSM TAF
Des Moines International Airport
Des Moines, Iowa, USA
KDSM 262328Z 2700/2724 17006KT P6SM FEW250 FM271100 16005KT P6SM BKN150 FM271900 18013KT P6SM SCT250

Jun-27@
00:00 UTC

Jun-27 @ 00:00 UTC

Jun-27@
11:00 UTC

Jun-27 @ 11:00 UTC

KDSM 262328Z 2700/2724 17006KT P6SM FEW250
Wind
  • 170° at 6 KTS
Cloud Levels
  • Few at 25,000' AGL

Jun-27@
11:00 UTC

Jun-27 @ 11:00 UTC

Jun-27@
19:00 UTC

Jun-27 @ 19:00 UTC

FM271100 16005KT P6SM BKN150

From

From Standard forecast or significant change

Wind
  • 160° at 5 KTS
Cloud Levels
  • Broken at 15,000' AGL

Jun-27@
19:00 UTC

Jun-27 @ 19:00 UTC

Jun-28@
00:00 UTC

Jun-28 @ 00:00 UTC

FM271900 18013KT P6SM SCT250

From

From Standard forecast or significant change

Wind
  • 180° at 13 KTS
Cloud Levels
  • Scattered at 25,000' AGL